createdAt,value
2017-11-12T00:00:26.259Z,82.12
2017-11-12T00:01:26.273Z,82.21
2017-11-12T00:02:26.290Z,82.03
2017-11-12T00:03:25.966Z,82.12
2017-11-12T00:04:26.310Z,82.03
2017-11-12T00:05:25.981Z,82.03
2017-11-12T00:06:26.332Z,82.03
2017-11-12T00:07:26.354Z,82.03
2017-11-12T00:08:26.028Z,82.31
2017-11-12T00:09:26.373Z,82.12
2017-11-12T00:10:26.379Z,81.74
2017-11-12T00:11:26.395Z,82.12
2017-11-12T00:12:26.410Z,82.21
2017-11-12T00:13:26.081Z,82.03
2017-11-12T00:14:26.427Z,82.4
2017-11-12T00:15:26.443Z,82.21
2017-11-12T00:16:26.451Z,82.03
2017-11-12T00:17:26.487Z,82.03
2017-11-12T00:18:26.475Z,82.12
2017-11-12T00:19:26.491Z,82.21
2017-11-12T00:20:26.506Z,82.21
2017-11-12T00:21:26.514Z,81.93
2017-11-12T00:22:26.529Z,81.93
2017-11-12T00:23:26.199Z,82.21
2017-11-12T00:24:26.216Z,81.93
2017-11-12T00:25:26.560Z,82.12
2017-11-12T00:26:26.580Z,82.12
2017-11-12T00:27:26.581Z,82.12
2017-11-12T00:28:26.257Z,82.59
2017-11-12T00:29:26.270Z,82.97
2017-11-12T00:30:26.620Z,82.97
2017-11-12T00:31:26.638Z,82.5
2017-11-12T00:32:26.657Z,82.5
2017-11-12T00:33:26.658Z,82.31
2017-11-12T00:34:26.673Z,82.4
2017-11-12T00:35:26.888Z,82.31
2017-11-12T00:36:26.358Z,82.88
2017-11-12T00:37:26.365Z,82.78
2017-11-12T00:38:26.381Z,83.07
2017-11-12T00:39:26.728Z,82.88
2017-11-12T00:40:26.743Z,83.07
2017-11-12T00:41:26.782Z,82.69
2017-11-12T00:42:26.776Z,82.78
2017-11-12T00:43:26.780Z,82.69
2017-11-12T00:44:26.789Z,82.59
2017-11-12T00:45:26.802Z,82.59
2017-11-12T00:46:26.815Z,82.78
2017-11-12T00:47:26.833Z,82.59
2017-11-12T00:48:26.832Z,82.59
2017-11-12T00:49:26.508Z,82.97
2017-11-12T00:50:26.863Z,82.78
2017-11-12T00:51:26.878Z,82.5
2017-11-12T00:52:26.887Z,82.97
2017-11-12T00:53:26.562Z,82.97
2017-11-12T00:54:26.907Z,83.16
2017-11-12T00:55:26.914Z,83.26
2017-11-12T00:56:26.934Z,83.16
2017-11-12T00:57:26.948Z,83.16
2017-11-12T00:58:26.962Z,83.16
2017-11-12T00:59:26.967Z,83.16
2017-11-12T01:00:26.987Z,83.36
2017-11-12T01:01:26.994Z,83.26
2017-11-12T01:02:27.001Z,83.26
2017-11-12T01:03:27.010Z,83.16
2017-11-12T01:04:27.025Z,82.97
2017-11-12T01:05:27.034Z,82.97
2017-11-12T01:06:27.050Z,83.07
2017-11-12T01:07:27.059Z,82.97
2017-11-12T01:08:27.072Z,83.07
2017-11-12T01:09:27.085Z,83.54
2017-11-12T01:10:26.761Z,83.54
2017-11-12T01:11:26.785Z,83.45
2017-11-12T01:12:27.115Z,83.07
2017-11-12T01:13:26.791Z,82.97
2017-11-12T01:14:27.145Z,82.97
2017-11-12T01:15:27.150Z,83.07
2017-11-12T01:16:26.830Z,82.97
2017-11-12T01:17:27.177Z,82.97
2017-11-12T01:18:27.190Z,83.16
2017-11-12T01:19:27.198Z,83.26
2017-11-12T01:20:27.215Z,82.97
2017-11-12T01:21:27.228Z,82.97
2017-11-12T01:22:27.239Z,83.45
2017-11-12T01:23:26.912Z,83.54
2017-11-12T01:24:27.259Z,83.16
2017-11-12T01:25:27.276Z,83.07
2017-11-12T01:26:27.291Z,83.16
2017-11-12T01:27:26.959Z,83.16
2017-11-12T01:28:27.317Z,83.16
2017-11-12T01:29:27.318Z,83.54
2017-11-12T01:30:27.336Z,82.97
2017-11-12T01:31:27.355Z,83.54
2017-11-12T01:32:27.355Z,83.16
2017-11-12T01:33:27.367Z,83.36
2017-11-12T01:34:27.379Z,83.64
2017-11-12T01:35:27.389Z,83.26
2017-11-12T01:36:27.402Z,83.36
2017-11-12T01:37:27.420Z,83.16
2017-11-12T01:38:27.439Z,83.26
2017-11-12T01:39:27.441Z,83.26
2017-11-12T01:40:27.450Z,83.07
2017-11-12T01:41:27.464Z,83.73
2017-11-12T01:42:27.477Z,83.64
2017-11-12T01:43:27.490Z,83.45
2017-11-12T01:44:27.499Z,83.26
2017-11-12T01:45:27.511Z,83.4
2017-11-12T01:46:27.522Z,83.59
2017-11-12T01:47:27.533Z,83.31
2017-11-12T01:48:27.555Z,83.36
2017-11-12T01:49:27.561Z,83.45
2017-11-12T01:50:27.573Z,83.5
2017-11-12T01:51:27.587Z,83.5
2017-11-12T01:52:27.604Z,83.4
2017-11-12T01:53:27.605Z,83.31
2017-11-12T01:54:27.621Z,83.4
2017-11-12T01:55:27.627Z,83.22
2017-11-12T01:56:27.644Z,83.5
2017-11-12T01:57:27.654Z,83.5
2017-11-12T01:58:27.665Z,83.5
2017-11-12T01:59:27.674Z,83.5
2017-11-12T02:00:27.691Z,83.4
2017-11-12T02:01:27.699Z,83.4
2017-11-12T02:02:27.715Z,83.22
2017-11-12T02:03:27.724Z,83.12
2017-11-12T02:04:27.795Z,83.22
2017-11-12T02:05:27.746Z,83.31
2017-11-12T02:06:27.763Z,83.22
2017-11-12T02:07:27.435Z,83.12
2017-11-12T02:08:27.782Z,83.22
2017-11-12T02:09:27.793Z,83.69
2017-11-12T02:10:27.812Z,83.59
2017-11-12T02:11:27.822Z,83.5
2017-11-12T02:12:27.831Z,83.31
2017-11-12T02:13:27.503Z,83.59
2017-11-12T02:14:27.852Z,83.59
2017-11-12T02:15:27.862Z,83.59
2017-11-12T02:16:27.908Z,83.59
2017-11-12T02:17:27.889Z,83.59
2017-11-12T02:18:27.907Z,83.31
2017-11-12T02:19:27.575Z,83.12
2017-11-12T02:20:27.919Z,83.22
2017-11-12T02:21:27.939Z,83.22
2017-11-12T02:22:27.612Z,83.22
2017-11-12T02:23:27.963Z,83.5
2017-11-12T02:24:27.635Z,83.97
2017-11-12T02:25:28.010Z,83.97
2017-11-12T02:26:27.996Z,83.97
2017-11-12T02:27:28.013Z,83.69
2017-11-12T02:28:28.018Z,83.78
2017-11-12T02:29:28.030Z,83.88
2017-11-12T02:30:28.043Z,83.97
2017-11-12T02:31:28.067Z,83.5
2017-11-12T02:32:28.068Z,83.97
2017-11-12T02:33:27.744Z,83.69
2017-11-12T02:34:28.096Z,83.97
2017-11-12T02:35:28.106Z,83.5
2017-11-12T02:36:27.788Z,83.97
2017-11-12T02:37:28.127Z,83.59
2017-11-12T02:38:28.138Z,83.59
2017-11-12T02:39:28.167Z,83.4
2017-11-12T02:40:28.165Z,83.4
2017-11-12T02:41:28.171Z,83.88
2017-11-12T02:42:28.198Z,83.78
2017-11-12T02:43:28.198Z,84.07
2017-11-12T02:44:28.206Z,83.97
2017-11-12T02:45:28.220Z,83.59
2017-11-12T02:46:28.229Z,83.69
2017-11-12T02:47:28.244Z,83.69
2017-11-12T02:48:28.269Z,84.17
2017-11-12T02:49:28.290Z,83.59
2017-11-12T02:50:28.278Z,84.17
2017-11-12T02:51:28.283Z,83.59
2017-11-12T02:52:28.324Z,83.88
2017-11-12T02:53:28.308Z,83.78
2017-11-12T02:54:27.986Z,83.78
2017-11-12T02:55:28.338Z,83.69
2017-11-12T02:56:28.377Z,83.31
2017-11-12T02:57:28.025Z,83.59
2017-11-12T02:58:28.031Z,84.26
2017-11-12T02:59:28.378Z,83.78
2017-11-12T03:00:28.407Z,83.5
2017-11-12T03:01:28.407Z,83.97
2017-11-12T03:02:28.419Z,83.69
2017-11-12T03:03:28.428Z,83.78
2017-11-12T03:04:28.447Z,83.78
2017-11-12T03:05:28.451Z,83.59
2017-11-12T03:06:28.463Z,84.17
2017-11-12T03:07:28.471Z,83.78
2017-11-12T03:08:28.148Z,83.97
2017-11-12T03:09:28.545Z,84.26
2017-11-12T03:10:28.512Z,84.07
2017-11-12T03:11:28.519Z,84.45
2017-11-12T03:12:28.537Z,84.36
2017-11-12T03:13:28.206Z,84.17
2017-11-12T03:14:28.553Z,84.45
2017-11-12T03:15:28.567Z,84.17
2017-11-12T03:16:28.578Z,84.17
2017-11-12T03:17:28.594Z,84.36
2017-11-12T03:18:28.601Z,84.36
2017-11-12T03:19:28.620Z,84.45
2017-11-12T03:20:28.628Z,84.36
2017-11-12T03:21:28.638Z,84.36
2017-11-12T03:22:28.648Z,84.45
2017-11-12T03:23:28.663Z,84.36
2017-11-12T03:24:28.672Z,84.74
2017-11-12T03:25:28.683Z,84.55
2017-11-12T03:26:28.694Z,84.45
2017-11-12T03:27:28.714Z,84.26
2017-11-12T03:28:28.720Z,84.07
2017-11-12T03:29:28.730Z,84.07
2017-11-12T03:30:28.752Z,84.17
2017-11-12T03:31:28.750Z,84.07
2017-11-12T03:32:28.429Z,83.88
2017-11-12T03:33:28.781Z,84.07
2017-11-12T03:34:28.790Z,83.97
2017-11-12T03:35:28.799Z,84.07
2017-11-12T03:36:28.814Z,84.26
2017-11-12T03:37:28.824Z,84.17
2017-11-12T03:38:28.844Z,84.45
2017-11-12T03:39:28.846Z,84.45
2017-11-12T03:40:28.854Z,84.26
2017-11-12T03:41:28.876Z,84.07
2017-11-12T03:42:28.889Z,84.17
2017-11-12T03:43:28.560Z,84.17
2017-11-12T03:44:28.916Z,84.17
2017-11-12T03:45:28.918Z,84.45
2017-11-12T03:46:28.928Z,84.36
2017-11-12T03:47:28.944Z,84.17
2017-11-12T03:48:28.951Z,84.07
2017-11-12T03:49:28.625Z,84.36
2017-11-12T03:50:28.976Z,84.45
2017-11-12T03:51:28.648Z,84.36
2017-11-12T03:52:28.998Z,84.45
2017-11-12T03:53:29.065Z,84.36
2017-11-12T03:54:29.026Z,84.17
2017-11-12T03:55:29.033Z,84.36
2017-11-12T03:56:29.055Z,84.17
2017-11-12T03:57:29.064Z,84.36
2017-11-12T03:58:29.066Z,84.36
2017-11-12T03:59:28.741Z,84.45
2017-11-12T04:00:29.090Z,84.26
2017-11-12T04:01:28.765Z,84.36
2017-11-12T04:02:28.838Z,84.45
2017-11-12T04:03:28.788Z,84.07
2017-11-12T04:04:28.801Z,84.45
2017-11-12T04:05:28.818Z,84.26
2017-11-12T04:06:28.823Z,84.17
2017-11-12T04:07:28.833Z,84.26
2017-11-12T04:08:28.845Z,84.17
2017-11-12T04:09:29.201Z,84.26
2017-11-12T04:10:28.874Z,84.26
2017-11-12T04:11:29.220Z,84.17
2017-11-12T04:12:29.227Z,84.17
2017-11-12T04:13:29.243Z,84.17
2017-11-12T04:14:29.253Z,84.17
2017-11-12T04:15:29.340Z,84.36
2017-11-12T04:16:28.937Z,84.45
2017-11-12T04:17:29.290Z,84.55
2017-11-12T04:18:28.962Z,84.45
2017-11-12T04:19:29.382Z,84.36
2017-11-12T04:20:29.322Z,84.36
2017-11-12T04:21:28.995Z,84.36
2017-11-12T04:22:29.344Z,84.45
2017-11-12T04:23:29.360Z,84.36
2017-11-12T04:24:29.366Z,84.36
2017-11-12T04:25:29.381Z,84.36
2017-11-12T04:26:29.053Z,84.55
2017-11-12T04:27:29.063Z,84.55
2017-11-12T04:28:29.075Z,84.26
2017-11-12T04:29:29.088Z,84.45
2017-11-12T04:30:29.451Z,84.17
2017-11-12T04:31:29.111Z,84.17
2017-11-12T04:32:29.473Z,84.36
2017-11-12T04:33:29.502Z,84.26
2017-11-12T04:34:29.478Z,84.26
2017-11-12T04:35:29.494Z,84.26
2017-11-12T04:36:29.504Z,84.26
2017-11-12T04:37:29.182Z,84.17
2017-11-12T04:38:29.192Z,84.17
2017-11-12T04:39:29.218Z,84.17
2017-11-12T04:40:29.600Z,84.07
2017-11-12T04:41:29.563Z,84.07
2017-11-12T04:42:29.582Z,84.17
2017-11-12T04:43:29.586Z,84.17
2017-11-12T04:44:29.608Z,84.26
2017-11-12T04:45:29.270Z,84.17
2017-11-12T04:46:29.633Z,84.55
2017-11-12T04:47:29.300Z,84.45
2017-11-12T04:48:29.323Z,84.17
2017-11-12T04:49:29.667Z,84.26
2017-11-12T04:50:29.671Z,83.97
2017-11-12T04:51:29.675Z,84.36
2017-11-12T04:52:29.353Z,84.45
2017-11-12T04:53:29.367Z,84.64
2017-11-12T04:54:29.374Z,84.92
2017-11-12T04:55:29.738Z,84.17
2017-11-12T04:56:29.733Z,84.92
2017-11-12T04:57:29.780Z,84.83
2017-11-12T04:58:29.757Z,85.02
2017-11-12T04:59:29.771Z,84.83
2017-11-12T05:00:29.783Z,84.92
2017-11-12T05:01:29.793Z,84.92
2017-11-12T05:02:29.802Z,84.92
2017-11-12T05:03:29.815Z,84.83
2017-11-12T05:04:29.489Z,84.92
2017-11-12T05:05:29.836Z,84.92
2017-11-12T05:06:29.852Z,85.02
2017-11-12T05:07:29.524Z,84.26
2017-11-12T05:08:29.537Z,84.64
2017-11-12T05:09:29.551Z,83.97
2017-11-12T05:10:29.568Z,84.45
2017-11-12T05:11:29.915Z,84.45
2017-11-12T05:12:29.582Z,84.17
2017-11-12T05:13:29.599Z,84.45
2017-11-12T05:14:29.604Z,84.45
2017-11-12T05:15:30.010Z,84.26
2017-11-12T05:16:29.973Z,84.45
2017-11-12T05:17:29.643Z,84.26
2017-11-12T05:18:29.648Z,84.92
2017-11-12T05:19:29.682Z,84.92
2017-11-12T05:20:29.674Z,85.02
2017-11-12T05:21:30.030Z,85.02
2017-11-12T05:22:30.032Z,84.92
2017-11-12T05:23:29.709Z,85.02
2017-11-12T05:24:29.736Z,84.92
2017-11-12T05:25:30.069Z,84.83
2017-11-12T05:26:30.076Z,84.36
2017-11-12T05:27:30.095Z,85.02
2017-11-12T05:28:29.765Z,84.92
2017-11-12T05:29:30.114Z,84.92
2017-11-12T05:30:29.787Z,85.02
2017-11-12T05:31:29.801Z,85.02
2017-11-12T05:32:30.152Z,84.92
2017-11-12T05:33:29.821Z,84.92
2017-11-12T05:34:30.173Z,84.83
2017-11-12T05:35:30.186Z,84.45
2017-11-12T05:36:29.856Z,84.83
2017-11-12T05:37:30.203Z,84.36
2017-11-12T05:38:30.222Z,84.07
2017-11-12T05:39:30.227Z,84.36
2017-11-12T05:40:30.241Z,84.45
2017-11-12T05:41:29.916Z,84.07
2017-11-12T05:42:30.271Z,84.07
2017-11-12T05:43:29.941Z,84.17
2017-11-12T05:44:30.289Z,84.45
2017-11-12T05:45:29.967Z,84.17
2017-11-12T05:46:29.969Z,83.88
2017-11-12T05:47:29.982Z,84.17
2017-11-12T05:48:29.995Z,84.26
2017-11-12T05:49:30.342Z,84.17
2017-11-12T05:50:30.357Z,84.07
2017-11-12T05:51:30.365Z,84.17
2017-11-12T05:52:30.040Z,84.07
2017-11-12T05:53:30.392Z,84.17
2017-11-12T05:54:30.063Z,84.07
2017-11-12T05:55:30.076Z,84.07
2017-11-12T05:56:30.420Z,84.17
2017-11-12T05:57:30.445Z,84.26
2017-11-12T05:58:30.459Z,84.07
2017-11-12T05:59:30.455Z,84.17
2017-11-12T06:00:30.502Z,84.26
2017-11-12T06:01:30.479Z,84.17
2017-11-12T06:02:30.490Z,84.17
2017-11-12T06:03:30.172Z,84.26
2017-11-12T06:04:30.514Z,84.17
2017-11-12T06:05:30.521Z,84.17
2017-11-12T06:06:30.548Z,84.36
2017-11-12T06:07:30.211Z,84.26
2017-11-12T06:08:30.223Z,84.07
2017-11-12T06:09:30.234Z,84.07
2017-11-12T06:10:30.580Z,84.64
2017-11-12T06:11:30.601Z,84.45
2017-11-12T06:12:30.606Z,84.64
2017-11-12T06:13:30.618Z,84.55
2017-11-12T06:14:30.296Z,84.17
2017-11-12T06:15:30.301Z,83.97
2017-11-12T06:16:30.650Z,84.45
2017-11-12T06:17:30.327Z,84.36
2017-11-12T06:18:30.669Z,84.26
2017-11-12T06:19:30.681Z,84.74
2017-11-12T06:20:30.356Z,84.26
2017-11-12T06:21:30.368Z,84.45
2017-11-12T06:22:30.383Z,85.02
2017-11-12T06:23:30.730Z,84.45
2017-11-12T06:24:30.737Z,84.45
2017-11-12T06:25:30.751Z,84.26
2017-11-12T06:26:30.770Z,84.36
2017-11-12T06:27:30.437Z,84.83
2017-11-12T06:28:30.478Z,84.45
2017-11-12T06:29:30.801Z,84.45
2017-11-12T06:30:30.820Z,84.17
2017-11-12T06:31:30.484Z,84.36
2017-11-12T06:32:30.493Z,84.92
2017-11-12T06:33:30.503Z,84.83
2017-11-12T06:34:30.520Z,84.92
2017-11-12T06:35:30.531Z,84.74
2017-11-12T06:36:30.550Z,84.83
2017-11-12T06:37:30.885Z,84.55
2017-11-12T06:38:30.915Z,84.74
2017-11-12T06:39:30.925Z,84.55
2017-11-12T06:40:30.583Z,84.64
2017-11-12T06:41:30.940Z,84.55
2017-11-12T06:42:30.609Z,84.64
2017-11-12T06:43:30.964Z,84.45
2017-11-12T06:44:30.637Z,84.55
2017-11-12T06:45:30.641Z,84.55
2017-11-12T06:46:30.652Z,84.55
2017-11-12T06:47:30.663Z,84.45
2017-11-12T06:48:31.013Z,84.55
2017-11-12T06:49:30.686Z,84.45
2017-11-12T06:50:30.700Z,84.92
2017-11-12T06:51:31.055Z,84.64
2017-11-12T06:52:31.061Z,84.83
2017-11-12T06:53:30.732Z,84.64
2017-11-12T06:54:30.761Z,84.64
2017-11-12T06:55:31.101Z,84.64
2017-11-12T06:56:30.765Z,84.74
2017-11-12T06:57:30.776Z,84.55
2017-11-12T06:58:30.788Z,84.83
2017-11-12T06:59:30.798Z,84.74
2017-11-12T07:00:30.815Z,84.92
2017-11-12T07:01:31.162Z,84.74
2017-11-12T07:02:31.180Z,84.74
2017-11-12T07:03:30.851Z,84.64
2017-11-12T07:04:30.856Z,84.74
2017-11-12T07:05:30.868Z,84.64
2017-11-12T07:06:30.880Z,84.74
2017-11-12T07:07:31.233Z,84.74
2017-11-12T07:08:30.901Z,84.92
2017-11-12T07:09:31.256Z,84.92
2017-11-12T07:10:30.931Z,84.64
2017-11-12T07:11:31.272Z,84.64
2017-11-12T07:12:31.311Z,84.64
2017-11-12T07:13:30.966Z,84.64
2017-11-12T07:14:31.309Z,84.64
2017-11-12T07:15:31.324Z,84.83
2017-11-12T07:16:30.994Z,84.83
2017-11-12T07:17:31.346Z,84.55
2017-11-12T07:18:31.356Z,84.64
2017-11-12T07:19:31.026Z,84.45
2017-11-12T07:20:31.374Z,84.45
2017-11-12T07:21:31.397Z,84.74
2017-11-12T07:22:31.397Z,84.83
2017-11-12T07:23:31.413Z,84.64
2017-11-12T07:24:31.086Z,84.92
2017-11-12T07:25:31.431Z,84.55
2017-11-12T07:26:31.107Z,84.64
2017-11-12T07:27:31.120Z,84.64
2017-11-12T07:28:31.155Z,84.92
2017-11-12T07:29:31.141Z,85.3
2017-11-12T07:30:31.156Z,85.11
2017-11-12T07:31:31.508Z,85.11
2017-11-12T07:32:31.516Z,85.21
2017-11-12T07:33:31.521Z,85.11
2017-11-12T07:34:31.536Z,85.21
2017-11-12T07:35:31.548Z,85.02
2017-11-12T07:36:31.566Z,85.11
2017-11-12T07:37:31.231Z,85.3
2017-11-12T07:38:31.592Z,85.11
2017-11-12T07:39:31.624Z,85.21
2017-11-12T07:40:31.279Z,84.74
2017-11-12T07:41:31.621Z,85.3
2017-11-12T07:42:31.629Z,84.74
2017-11-12T07:43:31.300Z,85.02
2017-11-12T07:44:31.652Z,85.21
2017-11-12T07:45:31.660Z,85.3
2017-11-12T07:46:31.334Z,84.83
2017-11-12T07:47:31.352Z,85.4
2017-11-12T07:48:31.693Z,84.83
2017-11-12T07:49:31.725Z,84.92
2017-11-12T07:50:31.717Z,84.83
2017-11-12T07:51:31.731Z,84.64
2017-11-12T07:52:31.407Z,84.64
2017-11-12T07:53:31.759Z,84.45
2017-11-12T07:54:31.765Z,84.83
2017-11-12T07:55:31.785Z,84.64
2017-11-12T07:56:31.790Z,84.64
2017-11-12T07:57:31.801Z,84.36
2017-11-12T07:58:31.815Z,84.55
2017-11-12T07:59:31.823Z,84.45
2017-11-12T08:00:31.500Z,84.55
2017-11-12T08:01:31.846Z,84.74
2017-11-12T08:02:31.861Z,84.64
2017-11-12T08:03:31.870Z,84.74
2017-11-12T08:04:31.882Z,84.45
2017-11-12T08:05:31.913Z,84.74
2017-11-12T08:06:31.908Z,84.64
2017-11-12T08:07:31.925Z,84.55
2017-11-12T08:08:31.938Z,84.59
2017-11-12T08:09:31.947Z,84.74
2017-11-12T08:10:31.949Z,84.78
2017-11-12T08:11:31.629Z,84.87
2017-11-12T08:12:31.979Z,84.68
2017-11-12T08:13:31.990Z,84.78
2017-11-12T08:14:31.660Z,85.25
2017-11-12T08:15:32.012Z,85.25
2017-11-12T08:16:32.041Z,84.87
2017-11-12T08:17:32.036Z,84.78
2017-11-12T08:18:32.048Z,84.68
2017-11-12T08:19:31.724Z,84.68
2017-11-12T08:20:32.070Z,84.68
2017-11-12T08:21:32.085Z,84.68
2017-11-12T08:22:32.091Z,84.59
2017-11-12T08:23:32.103Z,85.06
2017-11-12T08:24:32.120Z,85.35
2017-11-12T08:25:32.129Z,85.16
2017-11-12T08:26:32.162Z,85.25
2017-11-12T08:27:32.158Z,85.25
2017-11-12T08:28:32.159Z,85.44
2017-11-12T08:29:32.174Z,85.25
2017-11-12T08:30:32.186Z,85.06
2017-11-12T08:31:32.201Z,85.25
2017-11-12T08:32:32.207Z,85.16
2017-11-12T08:33:32.223Z,85.25
2017-11-12T08:34:32.238Z,85.35
2017-11-12T08:35:32.245Z,85.25
2017-11-12T08:36:32.257Z,85.25
2017-11-12T08:37:31.936Z,85.25
2017-11-12T08:38:32.283Z,85.25
2017-11-12T08:39:31.962Z,85.25
2017-11-12T08:40:32.305Z,84.97
2017-11-12T08:41:32.318Z,85.25
2017-11-12T08:42:32.329Z,85.06
2017-11-12T08:43:32.338Z,85.06
2017-11-12T08:44:32.013Z,85.35
2017-11-12T08:45:32.376Z,85.35
2017-11-12T08:46:32.040Z,85.25
2017-11-12T08:47:32.052Z,85.25
2017-11-12T08:48:32.398Z,85.25
2017-11-12T08:49:32.074Z,85.06
2017-11-12T08:50:32.419Z,85.35
2017-11-12T08:51:32.440Z,85.16
2017-11-12T08:52:32.111Z,84.68
2017-11-12T08:53:32.123Z,84.59
2017-11-12T08:54:32.135Z,84.87
2017-11-12T08:55:32.491Z,84.59
2017-11-12T08:56:32.496Z,84.68
2017-11-12T08:57:32.503Z,84.82
2017-11-12T08:58:32.184Z,85.39
2017-11-12T08:59:32.532Z,84.59
2017-11-12T09:00:32.547Z,84.72
2017-11-12T09:01:32.218Z,84.91
2017-11-12T09:02:32.564Z,84.91
2017-11-12T09:03:32.247Z,85.01
2017-11-12T09:04:32.253Z,84.82
2017-11-12T09:05:32.604Z,84.82
2017-11-12T09:06:32.616Z,85.01
2017-11-12T09:07:32.630Z,84.82
2017-11-12T09:08:32.303Z,84.91
2017-11-12T09:09:32.654Z,84.82
2017-11-12T09:10:32.330Z,84.72
2017-11-12T09:11:32.684Z,84.63
2017-11-12T09:12:32.689Z,84.82
2017-11-12T09:13:32.701Z,84.82
2017-11-12T09:14:32.717Z,85.01
2017-11-12T09:15:32.733Z,85.01
2017-11-12T09:16:32.741Z,85.11
2017-11-12T09:17:32.747Z,85.11
2017-11-12T09:18:32.772Z,85.11
2017-11-12T09:19:32.437Z,85.01
2017-11-12T09:20:32.790Z,84.91
2017-11-12T09:21:32.798Z,84.91
2017-11-12T09:22:32.816Z,84.53
2017-11-12T09:23:32.825Z,84.25
2017-11-12T09:24:32.838Z,84.16
2017-11-12T09:25:32.847Z,84.34
2017-11-12T09:26:32.863Z,84.25
2017-11-12T09:27:32.536Z,84.53
2017-11-12T09:28:32.557Z,84.44
2017-11-12T09:29:32.896Z,84.34
2017-11-12T09:30:32.911Z,84.53
2017-11-12T09:31:32.937Z,84.34
2017-11-12T09:32:32.942Z,84.44
2017-11-12T09:33:32.957Z,84.53
2017-11-12T09:34:32.961Z,84.25
2017-11-12T09:35:32.634Z,84.39
2017-11-12T09:36:32.984Z,84.2
2017-11-12T09:37:32.999Z,84.58
2017-11-12T09:38:33.012Z,84.67
2017-11-12T09:39:33.033Z,84.58
2017-11-12T09:40:33.033Z,84.63
2017-11-12T09:41:33.056Z,84.1
2017-11-12T09:42:33.069Z,84.48
2017-11-12T09:43:33.072Z,84.29
2017-11-12T09:44:33.087Z,84.01
2017-11-12T09:45:33.100Z,84.1
2017-11-12T09:46:33.115Z,84.2
2017-11-12T09:47:33.124Z,84.29
2017-11-12T09:48:33.139Z,83.72
2017-11-12T09:49:33.145Z,83.62
2017-11-12T09:50:33.165Z,84.1
2017-11-12T09:51:33.186Z,83.91
2017-11-12T09:52:33.247Z,84.1
2017-11-12T09:53:33.202Z,83.62
2017-11-12T09:54:33.210Z,84.01
2017-11-12T09:55:33.227Z,83.72
2017-11-12T09:56:33.241Z,84.1
2017-11-12T09:57:33.249Z,84.1
2017-11-12T09:58:33.261Z,83.82
2017-11-12T09:59:33.280Z,83.62
2017-11-12T10:00:33.287Z,84.1
2017-11-12T10:01:33.305Z,83.53
2017-11-12T10:02:33.310Z,84.01
2017-11-12T10:03:33.328Z,83.91
2017-11-12T10:04:33.341Z,83.82
2017-11-12T10:05:33.350Z,84.2
2017-11-12T10:06:33.364Z,83.82
2017-11-12T10:07:33.374Z,83.82
2017-11-12T10:08:33.419Z,83.82
2017-11-12T10:09:33.065Z,84.1
2017-11-12T10:10:33.079Z,83.91
2017-11-12T10:11:33.436Z,83.53
2017-11-12T10:12:33.507Z,83.62
2017-11-12T10:13:33.451Z,83.67
2017-11-12T10:14:33.464Z,83.25
2017-11-12T10:15:33.141Z,83.53
2017-11-12T10:16:33.500Z,83.53
2017-11-12T10:17:33.171Z,83.48
2017-11-12T10:18:33.530Z,83.48
2017-11-12T10:19:33.531Z,83.48
2017-11-12T10:20:33.578Z,83.67
2017-11-12T10:21:33.561Z,83.48
2017-11-12T10:22:33.579Z,83.48
2017-11-12T10:23:33.586Z,83.58
2017-11-12T10:24:33.595Z,83.48
2017-11-12T10:25:33.610Z,83.48
2017-11-12T10:26:33.285Z,83.67
2017-11-12T10:27:33.637Z,83.19
2017-11-12T10:28:33.649Z,83.29
2017-11-12T10:29:33.659Z,83.67
2017-11-12T10:30:33.676Z,83.39
2017-11-12T10:31:33.694Z,83.19
2017-11-12T10:32:33.706Z,83.29
2017-11-12T10:33:33.713Z,83.67
2017-11-12T10:34:33.733Z,83.58
2017-11-12T10:35:33.741Z,82.91
2017-11-12T10:36:33.754Z,83.48
2017-11-12T10:37:33.764Z,83.19
2017-11-12T10:38:33.782Z,83.29
2017-11-12T10:39:33.457Z,83.29
2017-11-12T10:40:33.804Z,83.29
2017-11-12T10:41:33.825Z,83.29
2017-11-12T10:42:33.833Z,83.29
2017-11-12T10:43:33.852Z,83.1
2017-11-12T10:44:33.870Z,83.39
2017-11-12T10:45:33.535Z,83.29
2017-11-12T10:46:33.888Z,83.29
2017-11-12T10:47:33.895Z,83.29
2017-11-12T10:48:33.910Z,83
2017-11-12T10:49:33.925Z,83.39
2017-11-12T10:50:33.937Z,83
2017-11-12T10:51:33.954Z,83
2017-11-12T10:52:33.630Z,82.91
2017-11-12T10:53:33.984Z,83
2017-11-12T10:54:33.656Z,82.62
2017-11-12T10:55:34.010Z,83.1
2017-11-12T10:56:34.018Z,83.1
2017-11-12T10:57:34.032Z,83.1
2017-11-12T10:58:34.045Z,83.1
2017-11-12T10:59:34.056Z,83.19
2017-11-12T11:00:34.079Z,83.29
2017-11-12T11:01:34.085Z,83.19
2017-11-12T11:02:33.763Z,83.29
2017-11-12T11:03:34.113Z,83.1
2017-11-12T11:04:34.126Z,83.1
2017-11-12T11:05:33.803Z,83
2017-11-12T11:06:34.152Z,83
2017-11-12T11:07:34.166Z,83.29
2017-11-12T11:08:34.187Z,83.39
2017-11-12T11:09:34.242Z,83.1
2017-11-12T11:10:33.869Z,83.19
2017-11-12T11:11:34.219Z,83.19
2017-11-12T11:12:34.242Z,83.19
2017-11-12T11:13:34.244Z,83.19
2017-11-12T11:14:34.269Z,83.1
2017-11-12T11:15:34.287Z,83.29
2017-11-12T11:16:34.285Z,83
2017-11-12T11:17:33.964Z,83
2017-11-12T11:18:34.416Z,82.62
2017-11-12T11:19:34.328Z,82.91
2017-11-12T11:20:34.339Z,82.81
2017-11-12T11:21:34.353Z,82.71
2017-11-12T11:22:34.028Z,82.91
2017-11-12T11:23:34.384Z,82.62
2017-11-12T11:24:34.058Z,82.91
2017-11-12T11:25:34.412Z,83
2017-11-12T11:26:34.422Z,82.62
2017-11-12T11:27:34.441Z,82.62
2017-11-12T11:28:34.111Z,83
2017-11-12T11:29:34.460Z,83
2017-11-12T11:30:34.473Z,82.91
2017-11-12T11:31:34.150Z,82.91
2017-11-12T11:32:34.163Z,83.1
2017-11-12T11:33:34.181Z,82.62
2017-11-12T11:34:34.193Z,82.62
2017-11-12T11:35:34.542Z,82.81
2017-11-12T11:36:34.221Z,82.71
2017-11-12T11:37:34.567Z,83.1
2017-11-12T11:38:34.583Z,83
2017-11-12T11:39:34.600Z,83
2017-11-12T11:40:34.610Z,82.53
2017-11-12T11:41:34.286Z,82.62
2017-11-12T11:42:34.633Z,82.53
2017-11-12T11:43:34.651Z,82.62
2017-11-12T11:44:34.328Z,82.62
2017-11-12T11:45:34.675Z,82.53
2017-11-12T11:46:34.690Z,82.91
2017-11-12T11:47:34.704Z,82.91
2017-11-12T11:48:34.723Z,82.53
2017-11-12T11:49:34.730Z,82.43
2017-11-12T11:50:34.410Z,82.34
2017-11-12T11:51:34.756Z,83
2017-11-12T11:52:34.773Z,83.1
2017-11-12T11:53:34.446Z,83.1
2017-11-12T11:54:34.461Z,83.1
2017-11-12T11:55:34.815Z,83
2017-11-12T11:56:34.822Z,83
2017-11-12T11:57:34.859Z,83
2017-11-12T11:58:34.851Z,83.1
2017-11-12T11:59:34.871Z,82.81
2017-11-12T12:00:34.879Z,82.53
2017-11-12T12:01:34.894Z,82.34
2017-11-12T12:02:34.909Z,82.34
2017-11-12T12:03:34.923Z,82.71
2017-11-12T12:04:34.933Z,82.53
2017-11-12T12:05:34.611Z,82.62
2017-11-12T12:06:34.961Z,82.05
2017-11-12T12:07:34.974Z,82.15
2017-11-12T12:08:34.654Z,82.15
2017-11-12T12:09:35.015Z,82.15
2017-11-12T12:10:35.016Z,82.15
2017-11-12T12:11:34.695Z,82.05
2017-11-12T12:12:35.043Z,82.15
2017-11-12T12:13:34.718Z,82.05
2017-11-12T12:14:35.071Z,82.43
2017-11-12T12:15:35.083Z,82.24
2017-11-12T12:16:35.097Z,82.24
2017-11-12T12:17:35.110Z,82.15
2017-11-12T12:18:35.125Z,82.24
2017-11-12T12:19:35.139Z,82.15
2017-11-12T12:20:35.165Z,82.05
2017-11-12T12:21:35.171Z,82.05
2017-11-12T12:22:35.184Z,82.15
2017-11-12T12:23:35.228Z,82.43
2017-11-12T12:24:35.215Z,82.05
2017-11-12T12:25:35.223Z,82.43
2017-11-12T12:26:35.232Z,82.53
2017-11-12T12:27:35.249Z,81.67
2017-11-12T12:28:35.267Z,82.53
2017-11-12T12:29:35.282Z,82.19
2017-11-12T12:30:35.286Z,81.58
2017-11-12T12:31:35.300Z,81.77
2017-11-12T12:32:35.322Z,81.81
2017-11-12T12:33:34.993Z,82.28
2017-11-12T12:34:35.371Z,82.09
2017-11-12T12:35:35.356Z,82.34
2017-11-12T12:36:35.383Z,81.9
2017-11-12T12:37:35.391Z,82.28
2017-11-12T12:38:35.422Z,82.38
2017-11-12T12:39:35.422Z,81.62
2017-11-12T12:40:35.092Z,82
2017-11-12T12:41:35.446Z,81.9
2017-11-12T12:42:35.462Z,82
2017-11-12T12:43:35.133Z,81.81
2017-11-12T12:44:35.481Z,81.62
2017-11-12T12:45:35.509Z,81.62
2017-11-12T12:46:35.509Z,81.71
2017-11-12T12:47:35.541Z,81.71
2017-11-12T12:48:35.543Z,81.71
2017-11-12T12:49:35.554Z,82
2017-11-12T12:50:35.566Z,81.81
2017-11-12T12:51:35.241Z,81.62
2017-11-12T12:52:35.621Z,81.9
2017-11-12T12:53:35.607Z,81.62
2017-11-12T12:54:35.621Z,81.33
2017-11-12T12:55:35.641Z,81.9
2017-11-12T12:56:35.649Z,81.62